sensor_id;sensor_type;location;lat;lon;timestamp;temperature;humidity
65472;DHT22;52068;50.710;14.492;2023-02-28T00:00:32;25.18;33.53
65472;DHT22;52068;50.710;14.492;2023-02-28T00:02:58;25.03;33.89
65472;DHT22;52068;50.710;14.492;2023-02-28T00:05:23;24.85;34.32
65472;DHT22;52068;50.710;14.492;2023-02-28T00:07:49;24.67;34.54
65472;DHT22;52068;50.710;14.492;2023-02-28T00:10:18;24.47;34.95
65472;DHT22;52068;50.710;14.492;2023-02-28T00:12:46;24.29;35.40
65472;DHT22;52068;50.710;14.492;2023-02-28T00:15:11;24.09;35.76
65472;DHT22;52068;50.710;14.492;2023-02-28T00:17:37;23.92;36.04
65472;DHT22;52068;50.710;14.492;2023-02-28T00:20:03;23.74;36.54
65472;DHT22;52068;50.710;14.492;2023-02-28T00:22:29;23.58;36.87
65472;DHT22;52068;50.710;14.492;2023-02-28T00:24:54;23.43;37.14
65472;DHT22;52068;50.710;14.492;2023-02-28T00:27:20;23.30;37.40
65472;DHT22;52068;50.710;14.492;2023-02-28T00:29:46;23.15;37.56
65472;DHT22;52068;50.710;14.492;2023-02-28T00:32:11;23.03;37.81
65472;DHT22;52068;50.710;14.492;2023-02-28T00:34:36;22.93;38.02
65472;DHT22;52068;50.710;14.492;2023-02-28T00:37:03;22.94;37.90
65472;DHT22;52068;50.710;14.492;2023-02-28T00:39:28;23.24;37.09
65472;DHT22;52068;50.710;14.492;2023-02-28T00:41:54;23.69;36.42
65472;DHT22;52068;50.710;14.492;2023-02-28T00:44:19;24.17;35.70
65472;DHT22;52068;50.710;14.492;2023-02-28T00:46:46;24.60;34.94
65472;DHT22;52068;50.710;14.492;2023-02-28T00:49:11;24.87;34.56
65472;DHT22;52068;50.710;14.492;2023-02-28T00:51:37;24.94;34.37
65472;DHT22;52068;50.710;14.492;2023-02-28T00:54:02;24.84;34.54
65472;DHT22;52068;50.710;14.492;2023-02-28T00:56:27;24.71;34.76
65472;DHT22;52068;50.710;14.492;2023-02-28T00:58:52;24.52;35.11
65472;DHT22;52068;50.710;14.492;2023-02-28T01:01:18;24.36;35.45
65472;DHT22;52068;50.710;14.492;2023-02-28T01:03:43;24.16;35.72
65472;DHT22;52068;50.710;14.492;2023-02-28T01:06:08;23.98;36.04
65472;DHT22;52068;50.710;14.492;2023-02-28T01:08:33;23.82;36.45
65472;DHT22;52068;50.710;14.492;2023-02-28T01:11:06;23.65;36.67
65472;DHT22;52068;50.710;14.492;2023-02-28T01:13:31;23.48;36.85
65472;DHT22;52068;50.710;14.492;2023-02-28T01:15:56;23.31;37.17
65472;DHT22;52068;50.710;14.492;2023-02-28T01:18:22;23.17;37.36
65472;DHT22;52068;50.710;14.492;2023-02-28T01:20:48;23.03;37.45
65472;DHT22;52068;50.710;14.492;2023-02-28T01:23:13;22.93;37.39
65472;DHT22;52068;50.710;14.492;2023-02-28T01:25:39;22.86;37.62
65472;DHT22;52068;50.710;14.492;2023-02-28T01:28:04;23.02;37.25
65472;DHT22;52068;50.710;14.492;2023-02-28T01:30:30;23.38;36.63
65472;DHT22;52068;50.710;14.492;2023-02-28T01:32:56;23.95;36.04
65472;DHT22;52068;50.710;14.492;2023-02-28T01:35:21;24.46;35.00
65472;DHT22;52068;50.710;14.492;2023-02-28T01:37:46;24.90;34.55
65472;DHT22;52068;50.710;14.492;2023-02-28T01:40:12;25.14;34.19
65472;DHT22;52068;50.710;14.492;2023-02-28T01:42:37;25.24;33.77
65472;DHT22;52068;50.710;14.492;2023-02-28T01:45:04;25.16;33.95
65472;DHT22;52068;50.710;14.492;2023-02-28T01:47:32;24.96;34.23
65472;DHT22;52068;50.710;14.492;2023-02-28T01:49:58;24.75;34.53
65472;DHT22;52068;50.710;14.492;2023-02-28T01:52:24;24.56;34.93
65472;DHT22;52068;50.710;14.492;2023-02-28T01:54:54;24.33;35.27
65472;DHT22;52068;50.710;14.492;2023-02-28T01:57:21;24.12;35.71
65472;DHT22;52068;50.710;14.492;2023-02-28T01:59:50;23.89;36.08
65472;DHT22;52068;50.710;14.492;2023-02-28T02:02:17;23.71;36.26
65472;DHT22;52068;50.710;14.492;2023-02-28T02:05:06;23.54;36.62
65472;DHT22;52068;50.710;14.492;2023-02-28T02:07:33;23.35;36.84
65472;DHT22;52068;50.710;14.492;2023-02-28T02:10:00;23.23;37.03
65472;DHT22;52068;50.710;14.492;2023-02-28T02:12:31;23.07;37.33
65472;DHT22;52068;50.710;14.492;2023-02-28T02:15:01;22.94;37.15
65472;DHT22;52068;50.710;14.492;2023-02-28T02:17:32;22.89;37.53
65472;DHT22;52068;50.710;14.492;2023-02-28T02:22:32;23.41;36.38
65472;DHT22;52068;50.710;14.492;2023-02-28T02:35:42;24.96;33.98
65472;DHT22;52068;50.710;14.492;2023-02-28T02:38:19;24.81;34.05
65472;DHT22;52068;50.710;14.492;2023-02-28T02:40:57;24.65;34.46
65472;DHT22;52068;50.710;14.492;2023-02-28T02:43:29;24.43;35.05
65472;DHT22;52068;50.710;14.492;2023-02-28T02:46:02;24.22;35.43
65472;DHT22;52068;50.710;14.492;2023-02-28T02:48:30;24.02;35.78
65472;DHT22;52068;50.710;14.492;2023-02-28T02:51:01;23.82;36.09
65472;DHT22;52068;50.710;14.492;2023-02-28T02:53:35;23.64;36.18
65472;DHT22;52068;50.710;14.492;2023-02-28T02:56:02;23.48;36.61
65472;DHT22;52068;50.710;14.492;2023-02-28T02:58:30;23.30;36.99
65472;DHT22;52068;50.710;14.492;2023-02-28T03:00:58;23.17;36.97
65472;DHT22;52068;50.710;14.492;2023-02-28T03:03:25;23.02;37.31
65472;DHT22;52068;50.710;14.492;2023-02-28T03:05:57;23.02;37.54
65472;DHT22;52068;50.710;14.492;2023-02-28T03:08:23;23.34;37.03
65472;DHT22;52068;50.710;14.492;2023-02-28T03:10:48;23.93;36.07
65472;DHT22;52068;50.710;14.492;2023-02-28T03:16:02;25.32;34.10
65472;DHT22;52068;50.710;14.492;2023-02-28T03:18:40;26.00;32.98
65472;DHT22;52068;50.710;14.492;2023-02-28T03:21:14;26.59;31.91
65472;DHT22;52068;50.710;14.492;2023-02-28T03:23:45;26.86;31.36
65472;DHT22;52068;50.710;14.492;2023-02-28T03:26:18;26.84;31.16
65472;DHT22;52068;50.710;14.492;2023-02-28T03:28:49;26.79;31.21
65472;DHT22;52068;50.710;14.492;2023-02-28T03:33:44;26.47;31.39
65472;DHT22;52068;50.710;14.492;2023-02-28T03:36:19;26.18;32.00
65472;DHT22;52068;50.710;14.492;2023-02-28T03:38:49;25.83;32.43
65472;DHT22;52068;50.710;14.492;2023-02-28T03:41:31;25.53;32.74
65472;DHT22;52068;50.710;14.492;2023-02-28T03:43:58;25.16;33.54
65472;DHT22;52068;50.710;14.492;2023-02-28T03:46:26;24.88;33.49
65472;DHT22;52068;50.710;14.492;2023-02-28T03:48:55;24.59;34.42
65472;DHT22;52068;50.710;14.492;2023-02-28T03:51:22;24.33;34.89
65472;DHT22;52068;50.710;14.492;2023-02-28T03:53:50;24.05;35.45
65472;DHT22;52068;50.710;14.492;2023-02-28T03:56:27;23.84;35.56
65472;DHT22;52068;50.710;14.492;2023-02-28T03:58:57;23.62;36.03
65472;DHT22;52068;50.710;14.492;2023-02-28T04:03:50;23.34;36.27
65472;DHT22;52068;50.710;14.492;2023-02-28T04:06:16;23.28;36.46
65472;DHT22;52068;50.710;14.492;2023-02-28T04:08:44;23.50;35.51
65472;DHT22;52068;50.710;14.492;2023-02-28T04:13:38;24.15;34.91
65472;DHT22;52068;50.710;14.492;2023-02-28T04:16:06;24.44;34.61
65472;DHT22;52068;50.710;14.492;2023-02-28T04:18:37;24.65;33.94
65472;DHT22;52068;50.710;14.492;2023-02-28T04:21:02;24.61;34.47
65472;DHT22;52068;50.710;14.492;2023-02-28T04:23:27;24.52;34.70
65472;DHT22;52068;50.710;14.492;2023-02-28T04:25:54;24.36;34.77
65472;DHT22;52068;50.710;14.492;2023-02-28T04:28:20;24.19;35.03
65472;DHT22;52068;50.710;14.492;2023-02-28T04:30:45;24.03;35.35
65472;DHT22;52068;50.710;14.492;2023-02-28T04:33:10;23.86;35.31
65472;DHT22;52068;50.710;14.492;2023-02-28T04:35:35;23.69;35.70
65472;DHT22;52068;50.710;14.492;2023-02-28T04:38:01;23.54;36.11
65472;DHT22;52068;50.710;14.492;2023-02-28T04:40:26;23.34;36.60
65472;DHT22;52068;50.710;14.492;2023-02-28T04:42:51;23.17;36.81
65472;DHT22;52068;50.710;14.492;2023-02-28T04:45:16;23.04;36.56
65472;DHT22;52068;50.710;14.492;2023-02-28T04:47:42;22.90;36.90
65472;DHT22;52068;50.710;14.492;2023-02-28T04:50:07;22.77;37.06
65472;DHT22;52068;50.710;14.492;2023-02-28T04:52:33;22.66;37.47
65472;DHT22;52068;50.710;14.492;2023-02-28T04:54:59;22.74;37.17
65472;DHT22;52068;50.710;14.492;2023-02-28T04:57:24;23.07;36.64
65472;DHT22;52068;50.710;14.492;2023-02-28T04:59:50;23.59;36.08
65472;DHT22;52068;50.710;14.492;2023-02-28T05:02:15;24.19;35.13
65472;DHT22;52068;50.710;14.492;2023-02-28T05:04:40;24.64;34.76
65472;DHT22;52068;50.710;14.492;2023-02-28T05:07:05;25.04;33.83
65472;DHT22;52068;50.710;14.492;2023-02-28T05:09:31;25.18;33.83
65472;DHT22;52068;50.710;14.492;2023-02-28T05:11:57;25.22;33.48
65472;DHT22;52068;50.710;14.492;2023-02-28T05:14:23;25.12;33.31
65472;DHT22;52068;50.710;14.492;2023-02-28T05:16:48;24.94;33.81
65472;DHT22;52068;50.710;14.492;2023-02-28T05:19:13;24.67;34.32
65472;DHT22;52068;50.710;14.492;2023-02-28T05:21:40;24.44;34.65
65472;DHT22;52068;50.710;14.492;2023-02-28T05:24:06;24.22;34.99
65472;DHT22;52068;50.710;14.492;2023-02-28T05:26:51;24.03;35.38
65472;DHT22;52068;50.710;14.492;2023-02-28T05:29:17;23.78;35.74
65472;DHT22;52068;50.710;14.492;2023-02-28T05:31:43;23.62;35.59
65472;DHT22;52068;50.710;14.492;2023-02-28T05:34:08;23.41;36.32
65472;DHT22;52068;50.710;14.492;2023-02-28T05:36:36;23.25;35.95
65472;DHT22;52068;50.710;14.492;2023-02-28T05:39:01;23.11;36.23
65472;DHT22;52068;50.710;14.492;2023-02-28T05:41:27;22.97;36.34
65472;DHT22;52068;50.710;14.492;2023-02-28T05:43:52;22.82;36.80
65472;DHT22;52068;50.710;14.492;2023-02-28T05:46:17;22.87;36.50
65472;DHT22;52068;50.710;14.492;2023-02-28T05:48:45;23.07;36.21
65472;DHT22;52068;50.710;14.492;2023-02-28T05:51:11;23.44;35.97
65472;DHT22;52068;50.710;14.492;2023-02-28T05:53:36;23.92;35.34
65472;DHT22;52068;50.710;14.492;2023-02-28T05:56:01;24.27;34.84
65472;DHT22;52068;50.710;14.492;2023-02-28T05:58:27;24.68;34.28
65472;DHT22;52068;50.710;14.492;2023-02-28T06:00:55;24.90;33.88
65472;DHT22;52068;50.710;14.492;2023-02-28T06:03:21;24.91;33.58
65472;DHT22;52068;50.710;14.492;2023-02-28T06:05:46;24.83;33.77
65472;DHT22;52068;50.710;14.492;2023-02-28T06:08:11;24.61;34.01
65472;DHT22;52068;50.710;14.492;2023-02-28T06:10:36;24.46;33.57
65472;DHT22;52068;50.710;14.492;2023-02-28T06:13:04;24.24;34.49
65472;DHT22;52068;50.710;14.492;2023-02-28T06:15:30;24.02;34.85
65472;DHT22;52068;50.710;14.492;2023-02-28T06:17:56;23.82;35.50
65472;DHT22;52068;50.710;14.492;2023-02-28T06:20:22;23.62;35.90
65472;DHT22;52068;50.710;14.492;2023-02-28T06:22:47;23.43;36.00
65472;DHT22;52068;50.710;14.492;2023-02-28T06:25:13;23.27;36.28
65472;DHT22;52068;50.710;14.492;2023-02-28T06:27:38;23.10;36.20
65472;DHT22;52068;50.710;14.492;2023-02-28T06:30:03;22.94;36.49
65472;DHT22;52068;50.710;14.492;2023-02-28T06:32:29;22.80;36.88
65472;DHT22;52068;50.710;14.492;2023-02-28T06:34:54;22.70;36.95
65472;DHT22;52068;50.710;14.492;2023-02-28T06:37:19;22.77;37.02
65472;DHT22;52068;50.710;14.492;2023-02-28T06:39:45;23.03;36.35
65472;DHT22;52068;50.710;14.492;2023-02-28T06:42:10;23.38;35.74
65472;DHT22;52068;50.710;14.492;2023-02-28T06:44:35;23.81;34.32
65472;DHT22;52068;50.710;14.492;2023-02-28T06:47:01;24.19;33.75
65472;DHT22;52068;50.710;14.492;2023-02-28T06:49:28;24.46;33.24
65472;DHT22;52068;50.710;14.492;2023-02-28T06:51:53;24.54;32.65
65472;DHT22;52068;50.710;14.492;2023-02-28T06:54:19;24.43;32.84
65472;DHT22;52068;50.710;14.492;2023-02-28T06:56:44;24.24;33.52
65472;DHT22;52068;50.710;14.492;2023-02-28T06:59:09;24.10;33.78
65472;DHT22;52068;50.710;14.492;2023-02-28T07:01:35;23.93;33.82
65472;DHT22;52068;50.710;14.492;2023-02-28T07:04:01;23.78;34.12
65472;DHT22;52068;50.710;14.492;2023-02-28T07:06:26;23.62;34.18
65472;DHT22;52068;50.710;14.492;2023-02-28T07:08:52;23.47;34.42
65472;DHT22;52068;50.710;14.492;2023-02-28T07:11:18;23.30;34.74
65472;DHT22;52068;50.710;14.492;2023-02-28T07:13:44;23.17;34.96
65472;DHT22;52068;50.710;14.492;2023-02-28T07:16:10;23.02;35.09
65472;DHT22;52068;50.710;14.492;2023-02-28T07:18:35;22.90;35.41
65472;DHT22;52068;50.710;14.492;2023-02-28T07:21:01;22.79;35.46
65472;DHT22;52068;50.710;14.492;2023-02-28T07:23:26;22.74;35.85
65472;DHT22;52068;50.710;14.492;2023-02-28T07:25:52;22.96;35.44
65472;DHT22;52068;50.710;14.492;2023-02-28T07:28:17;23.35;34.89
65472;DHT22;52068;50.710;14.492;2023-02-28T07:30:42;23.82;34.02
65472;DHT22;52068;50.710;14.492;2023-02-28T07:33:08;24.40;32.83
65472;DHT22;52068;50.710;14.492;2023-02-28T07:35:33;24.78;32.32
65472;DHT22;52068;50.710;14.492;2023-02-28T07:37:58;24.98;32.14
65472;DHT22;52068;50.710;14.492;2023-02-28T07:40:24;25.03;31.87
65472;DHT22;52068;50.710;14.492;2023-02-28T07:42:49;25.04;31.98
65472;DHT22;52068;50.710;14.492;2023-02-28T07:45:15;24.91;32.04
65472;DHT22;52068;50.710;14.492;2023-02-28T07:47:41;24.74;32.36
65472;DHT22;52068;50.710;14.492;2023-02-28T07:50:07;24.59;32.85
65472;DHT22;52068;50.710;14.492;2023-02-28T07:52:33;24.37;33.23
65472;DHT22;52068;50.710;14.492;2023-02-28T07:54:58;24.16;33.78
65472;DHT22;52068;50.710;14.492;2023-02-28T07:57:23;23.98;34.02
65472;DHT22;52068;50.710;14.492;2023-02-28T07:59:49;23.81;34.42
65472;DHT22;52068;50.710;14.492;2023-02-28T08:02:15;23.62;34.87
65472;DHT22;52068;50.710;14.492;2023-02-28T08:04:40;23.48;34.99
65472;DHT22;52068;50.710;14.492;2023-02-28T08:07:06;23.35;35.19
65472;DHT22;52068;50.710;14.492;2023-02-28T08:09:31;23.50;35.16
65472;DHT22;52068;50.710;14.492;2023-02-28T08:11:56;24.03;34.46
65472;DHT22;52068;50.710;14.492;2023-02-28T08:14:22;24.80;33.28
65472;DHT22;52068;50.710;14.492;2023-02-28T08:16:47;25.62;32.01
65472;DHT22;52068;50.710;14.492;2023-02-28T08:19:12;26.41;30.74
65472;DHT22;52068;50.710;14.492;2023-02-28T08:21:37;27.09;29.68
65472;DHT22;52068;50.710;14.492;2023-02-28T08:24:03;27.57;28.97
65472;DHT22;52068;50.710;14.492;2023-02-28T08:26:28;27.77;28.66
65472;DHT22;52068;50.710;14.492;2023-02-28T08:28:53;27.84;28.59
65472;DHT22;52068;50.710;14.492;2023-02-28T08:31:19;27.66;28.82
65472;DHT22;52068;50.710;14.492;2023-02-28T08:33:44;27.43;28.97
65472;DHT22;52068;50.710;14.492;2023-02-28T08:36:10;27.16;29.30
65472;DHT22;52068;50.710;14.492;2023-02-28T08:38:35;26.88;29.69
65472;DHT22;52068;50.710;14.492;2023-02-28T08:41:02;26.59;30.02
65472;DHT22;52068;50.710;14.492;2023-02-28T08:43:28;26.30;30.36
65472;DHT22;52068;50.710;14.492;2023-02-28T08:45:54;25.98;30.80
65472;DHT22;52068;50.710;14.492;2023-02-28T08:48:22;25.67;31.30
65472;DHT22;52068;50.710;14.492;2023-02-28T08:51:00;25.41;31.67
65472;DHT22;52068;50.710;14.492;2023-02-28T08:53:26;25.10;32.24
65472;DHT22;52068;50.710;14.492;2023-02-28T08:55:58;24.84;32.79
65472;DHT22;52068;50.710;14.492;2023-02-28T08:58:23;24.64;33.24
65472;DHT22;52068;50.710;14.492;2023-02-28T09:00:50;24.49;33.57
65472;DHT22;52068;50.710;14.492;2023-02-28T09:03:15;24.34;33.93
65472;DHT22;52068;50.710;14.492;2023-02-28T09:05:40;24.32;34.12
65472;DHT22;52068;50.710;14.492;2023-02-28T09:08:05;24.44;34.03
65472;DHT22;52068;50.710;14.492;2023-02-28T09:10:31;24.77;33.60
65472;DHT22;52068;50.710;14.492;2023-02-28T09:12:56;25.24;32.86
65472;DHT22;52068;50.710;14.492;2023-02-28T09:15:21;25.67;32.20
65472;DHT22;52068;50.710;14.492;2023-02-28T09:17:47;25.87;31.73
65472;DHT22;52068;50.710;14.492;2023-02-28T09:20:12;26.01;31.47
65472;DHT22;52068;50.710;14.492;2023-02-28T09:22:38;25.96;31.55
65472;DHT22;52068;50.710;14.492;2023-02-28T09:25:03;25.82;31.70
65472;DHT22;52068;50.710;14.492;2023-02-28T09:27:29;25.66;31.90
65472;DHT22;52068;50.710;14.492;2023-02-28T09:29:54;25.45;32.10
65472;DHT22;52068;50.710;14.492;2023-02-28T09:32:19;25.26;32.36
65472;DHT22;52068;50.710;14.492;2023-02-28T09:34:45;25.04;32.74
65472;DHT22;52068;50.710;14.492;2023-02-28T09:37:10;24.84;33.12
65472;DHT22;52068;50.710;14.492;2023-02-28T09:39:35;24.67;33.36
65472;DHT22;52068;50.710;14.492;2023-02-28T09:42:00;24.44;33.63
65472;DHT22;52068;50.710;14.492;2023-02-28T09:46:54;24.09;34.03
65472;DHT22;52068;50.710;14.492;2023-02-28T09:49:22;23.95;34.41
65472;DHT22;52068;50.710;14.492;2023-02-28T09:54:20;23.90;34.53
65472;DHT22;52068;50.710;14.492;2023-02-28T09:56:54;24.34;33.99
65472;DHT22;52068;50.710;14.492;2023-02-28T09:59:25;25.03;32.86
65472;DHT22;52068;50.710;14.492;2023-02-28T10:02:01;25.72;31.82
65472;DHT22;52068;50.710;14.492;2023-02-28T10:06:52;26.67;30.38
65472;DHT22;52068;50.710;14.492;2023-02-28T10:09:19;26.82;30.12
65472;DHT22;52068;50.710;14.492;2023-02-28T10:11:47;26.82;30.10
65472;DHT22;52068;50.710;14.492;2023-02-28T10:16:46;26.52;30.49
65472;DHT22;52068;50.710;14.492;2023-02-28T10:20:02;26.31;30.76
65472;DHT22;52068;50.710;14.492;2023-02-28T10:22:03;26.08;31.01
65472;DHT22;52068;50.710;14.492;2023-02-28T10:26:56;25.67;31.55
65472;DHT22;52068;50.710;14.492;2023-02-28T10:29:24;25.46;31.89
65472;DHT22;52068;50.710;14.492;2023-02-28T10:31:49;25.24;32.26
65472;DHT22;52068;50.710;14.492;2023-02-28T10:34:14;25.03;32.47
65472;DHT22;52068;50.710;14.492;2023-02-28T10:36:40;24.83;32.87
65472;DHT22;52068;50.710;14.492;2023-02-28T10:41:51;24.47;33.63
65472;DHT22;52068;50.710;14.492;2023-02-28T10:44:20;24.37;33.69
65472;DHT22;52068;50.710;14.492;2023-02-28T10:46:46;24.49;33.56
65472;DHT22;52068;50.710;14.492;2023-02-28T10:49:20;24.90;32.97
65472;DHT22;52068;50.710;14.492;2023-02-28T10:51:45;25.46;32.06
65472;DHT22;52068;50.710;14.492;2023-02-28T10:54:22;26.01;31.16
65472;DHT22;52068;50.710;14.492;2023-02-28T10:57:06;26.47;30.46
65472;DHT22;52068;50.710;14.492;2023-02-28T10:59:32;26.76;29.99
65472;DHT22;52068;50.710;14.492;2023-02-28T11:01:57;26.79;29.98
65472;DHT22;52068;50.710;14.492;2023-02-28T11:07:02;26.59;30.25
65472;DHT22;52068;50.710;14.492;2023-02-28T11:09:35;26.37;30.57
65472;DHT22;52068;50.710;14.492;2023-02-28T11:12:02;26.14;30.95
65472;DHT22;52068;50.710;14.492;2023-02-28T11:14:28;25.90;31.25
65472;DHT22;52068;50.710;14.492;2023-02-28T11:16:54;25.62;31.59
65472;DHT22;52068;50.710;14.492;2023-02-28T11:19:25;25.38;32.04
65472;DHT22;52068;50.710;14.492;2023-02-28T11:21:53;25.16;32.42
65472;DHT22;52068;50.710;14.492;2023-02-28T11:24:24;24.94;32.73
65472;DHT22;52068;50.710;14.492;2023-02-28T11:26:51;24.77;33.14
65472;DHT22;52068;50.710;14.492;2023-02-28T11:29:23;24.59;33.43
65472;DHT22;52068;50.710;14.492;2023-02-28T11:34:36;24.23;33.99
65472;DHT22;52068;50.710;14.492;2023-02-28T11:37:02;24.09;34.32
65472;DHT22;52068;50.710;14.492;2023-02-28T11:39:34;24.01;34.49
65472;DHT22;52068;50.710;14.492;2023-02-28T11:47:37;24.54;33.82
65472;DHT22;52068;50.710;14.492;2023-02-28T11:57:59;25.07;32.94
65472;DHT22;52068;50.710;14.492;2023-02-28T12:01:01;24.98;33.09
65472;DHT22;52068;50.710;14.492;2023-02-28T12:16:55;24.23;34.32
65472;DHT22;52068;50.710;14.492;2023-02-28T12:27:32;23.81;35.22
65472;DHT22;52068;50.710;14.492;2023-02-28T12:30:02;23.88;35.22
65472;DHT22;52068;50.710;14.492;2023-02-28T12:32:32;24.17;34.84
65472;DHT22;52068;50.710;14.492;2023-02-28T12:35:02;24.64;34.13
65472;DHT22;52068;50.710;14.492;2023-02-28T12:37:31;25.14;33.31
65472;DHT22;52068;50.710;14.492;2023-02-28T12:40:03;25.56;32.63
65472;DHT22;52068;50.710;14.492;2023-02-28T12:42:31;25.86;32.18
65472;DHT22;52068;50.710;14.492;2023-02-28T12:45:15;25.96;32.00
65472;DHT22;52068;50.710;14.492;2023-02-28T12:47:42;25.93;31.96
65472;DHT22;52068;50.710;14.492;2023-02-28T12:50:09;25.84;32.03
65472;DHT22;52068;50.710;14.492;2023-02-28T13:00:12;25.31;32.90
65472;DHT22;52068;50.710;14.492;2023-02-28T13:10:43;24.67;34.01
65472;DHT22;52068;50.710;14.492;2023-02-28T13:13:13;24.56;34.21
65472;DHT22;52068;50.710;14.492;2023-02-28T13:15:39;24.43;34.31
65472;DHT22;52068;50.710;14.492;2023-02-28T13:18:24;24.32;34.59
65472;DHT22;52068;50.710;14.492;2023-02-28T13:20:52;24.22;34.74
65472;DHT22;52068;50.710;14.492;2023-02-28T13:24:03;24.15;34.92
65472;DHT22;52068;50.710;14.492;2023-02-28T13:26:03;24.10;35.05
65472;DHT22;52068;50.710;14.492;2023-02-28T13:31:13;24.37;34.64
65472;DHT22;52068;50.710;14.492;2023-02-28T13:41:48;25.29;32.95
65472;DHT22;52068;50.710;14.492;2023-02-28T13:49:30;25.31;32.45
65472;DHT22;52068;50.710;14.492;2023-02-28T14:04:39;24.83;32.64
65472;DHT22;52068;50.710;14.492;2023-02-28T14:07:08;24.70;32.80
65472;DHT22;52068;50.710;14.492;2023-02-28T14:17:12;24.39;33.32
65472;DHT22;52068;50.710;14.492;2023-02-28T14:19:38;24.32;33.16
65472;DHT22;52068;50.710;14.492;2023-02-28T14:27:06;24.39;32.96
65472;DHT22;52068;50.710;14.492;2023-02-28T14:29:41;24.53;32.62
65472;DHT22;52068;50.710;14.492;2023-02-28T14:37:19;24.70;32.14
65472;DHT22;52068;50.710;14.492;2023-02-28T14:39:45;24.71;32.12
65472;DHT22;52068;50.710;14.492;2023-02-28T14:44:55;24.60;32.28
65472;DHT22;52068;50.710;14.492;2023-02-28T14:47:21;24.54;32.39
65472;DHT22;52068;50.710;14.492;2023-02-28T14:49:48;24.46;32.51
65472;DHT22;52068;50.710;14.492;2023-02-28T14:54:45;24.34;32.82
65472;DHT22;52068;50.710;14.492;2023-02-28T14:57:21;24.26;33.08
65472;DHT22;52068;50.710;14.492;2023-02-28T14:59:46;24.20;33.18
65472;DHT22;52068;50.710;14.492;2023-02-28T15:02:22;24.13;33.33
65472;DHT22;52068;50.710;14.492;2023-02-28T15:07:19;24.02;33.65
65472;DHT22;52068;50.710;14.492;2023-02-28T15:10:06;23.98;33.77
65472;DHT22;52068;50.710;14.492;2023-02-28T15:12:31;23.90;33.86
65472;DHT22;52068;50.710;14.492;2023-02-28T15:14:56;23.88;33.96
65472;DHT22;52068;50.710;14.492;2023-02-28T15:17:22;23.93;33.88
65472;DHT22;52068;50.710;14.492;2023-02-28T15:19:50;24.12;33.65
65472;DHT22;52068;50.710;14.492;2023-02-28T15:22:17;24.33;33.32
65472;DHT22;52068;50.710;14.492;2023-02-28T15:24:45;24.52;33.06
65472;DHT22;52068;50.710;14.492;2023-02-28T15:27:15;24.61;32.89
65472;DHT22;52068;50.710;14.492;2023-02-28T15:29:49;24.67;32.74
65472;DHT22;52068;50.710;14.492;2023-02-28T15:32:32;24.73;32.76
65472;DHT22;52068;50.710;14.492;2023-02-28T15:34:58;24.68;32.76
65472;DHT22;52068;50.710;14.492;2023-02-28T15:39:56;24.60;33.02
65472;DHT22;52068;50.710;14.492;2023-02-28T15:42:23;24.52;33.11
65472;DHT22;52068;50.710;14.492;2023-02-28T15:44:52;24.43;33.25
65472;DHT22;52068;50.710;14.492;2023-02-28T15:47:18;24.32;33.39
65472;DHT22;52068;50.710;14.492;2023-02-28T15:49:51;24.26;33.58
65472;DHT22;52068;50.710;14.492;2023-02-28T15:52:19;24.16;33.64
65472;DHT22;52068;50.710;14.492;2023-02-28T15:54:46;24.08;33.75
65472;DHT22;52068;50.710;14.492;2023-02-28T15:57:23;23.98;33.88
65472;DHT22;52068;50.710;14.492;2023-02-28T15:59:57;23.89;33.94
65472;DHT22;52068;50.710;14.492;2023-02-28T16:02:29;23.82;34.04
65472;DHT22;52068;50.710;14.492;2023-02-28T16:07:20;23.96;33.84
65472;DHT22;52068;50.710;14.492;2023-02-28T16:09:45;24.19;33.63
65472;DHT22;52068;50.710;14.492;2023-02-28T16:12:12;24.41;33.25
65472;DHT22;52068;50.710;14.492;2023-02-28T16:14:38;24.60;32.99
65472;DHT22;52068;50.710;14.492;2023-02-28T16:17:05;24.70;32.77
65472;DHT22;52068;50.710;14.492;2023-02-28T16:19:30;24.77;32.67
65472;DHT22;52068;50.710;14.492;2023-02-28T16:21:56;24.74;32.64
65472;DHT22;52068;50.710;14.492;2023-02-28T16:24:21;24.68;32.53
65472;DHT22;52068;50.710;14.492;2023-02-28T16:26:48;24.60;32.72
65472;DHT22;52068;50.710;14.492;2023-02-28T16:29:15;24.49;33.00
65472;DHT22;52068;50.710;14.492;2023-02-28T16:31:43;24.36;33.06
65472;DHT22;52068;50.710;14.492;2023-02-28T16:34:08;24.24;33.22
65472;DHT22;52068;50.710;14.492;2023-02-28T16:36:34;24.15;33.42
65472;DHT22;52068;50.710;14.492;2023-02-28T16:38:59;23.99;33.62
65472;DHT22;52068;50.710;14.492;2023-02-28T16:41:26;23.90;33.86
65472;DHT22;52068;50.710;14.492;2023-02-28T16:43:52;23.76;33.99
65472;DHT22;52068;50.710;14.492;2023-02-28T16:46:18;23.65;34.13
65472;DHT22;52068;50.710;14.492;2023-02-28T16:48:44;23.54;34.34
65472;DHT22;52068;50.710;14.492;2023-02-28T16:51:13;23.45;34.15
65472;DHT22;52068;50.710;14.492;2023-02-28T16:53:39;23.44;34.28
65472;DHT22;52068;50.710;14.492;2023-02-28T16:56:05;23.76;33.89
65472;DHT22;52068;50.710;14.492;2023-02-28T16:58:32;24.27;33.28
65472;DHT22;52068;50.710;14.492;2023-02-28T17:01:00;24.84;32.33
65472;DHT22;52068;50.710;14.492;2023-02-28T17:03:27;25.32;31.64
65472;DHT22;52068;50.710;14.492;2023-02-28T17:05:53;25.61;31.19
65472;DHT22;52068;50.710;14.492;2023-02-28T17:08:18;25.69;31.03
65472;DHT22;52068;50.710;14.492;2023-02-28T17:10:44;25.62;31.15
65472;DHT22;52068;50.710;14.492;2023-02-28T17:13:09;25.47;31.35
65472;DHT22;52068;50.710;14.492;2023-02-28T17:15:35;25.29;31.79
65472;DHT22;52068;50.710;14.492;2023-02-28T17:18:01;25.15;32.07
65472;DHT22;52068;50.710;14.492;2023-02-28T17:20:27;24.98;32.43
65472;DHT22;52068;50.710;14.492;2023-02-28T17:22:53;24.81;32.92
65472;DHT22;52068;50.710;14.492;2023-02-28T17:25:18;24.65;33.16
65472;DHT22;52068;50.710;14.492;2023-02-28T17:27:44;24.49;33.51
65472;DHT22;52068;50.710;14.492;2023-02-28T17:32:35;24.16;33.88
65472;DHT22;52068;50.710;14.492;2023-02-28T17:35:00;24.01;33.99
65472;DHT22;52068;50.710;14.492;2023-02-28T17:37:25;23.85;34.30
65472;DHT22;52068;50.710;14.492;2023-02-28T17:39:51;23.68;34.55
65472;DHT22;52068;50.710;14.492;2023-02-28T17:42:16;23.57;34.79
65472;DHT22;52068;50.710;14.492;2023-02-28T17:44:41;23.43;35.03
65472;DHT22;52068;50.710;14.492;2023-02-28T17:47:08;23.41;35.03
65472;DHT22;52068;50.710;14.492;2023-02-28T17:49:35;23.65;34.03
65472;DHT22;52068;50.710;14.492;2023-02-28T17:52:00;23.96;32.52